Time,TemperatureF,DewpointF,PressureIn,WindDirection,WindDirectionDegrees,WindSpeedMPH,WindSpeedGustMPH,Humidity,HourlyPrecipIn,Conditions,Clouds,dailyrainin,SoftwareType,DateUTC
2013-03-14 08:43:00,27.0,24.0,-100.00,North,10,1.0,6.0,89,-99.99,,,-99.99,,2013-03-14 13:43:00,
2013-03-14 08:52:00,27.0,25.0,-100.00,North,10,2.0,6.0,89,-99.99,,,-99.99,,2013-03-14 13:52:00,
2013-03-14 09:00:00,29.0,24.0,-100.00,North,10,3.0,7.0,82,-99.99,,,-99.99,,2013-03-14 14:00:00,
2013-03-14 09:02:00,27.0,25.0,-100.00,North,10,2.0,6.0,89,-99.99,,,-99.99,,2013-03-14 14:02:00,
2013-03-14 09:12:00,28.0,25.0,-100.00,North,10,2.0,6.0,88,-99.99,,,-99.99,,2013-03-14 14:12:00,
2013-03-14 09:22:00,28.0,24.0,-100.00,North,10,1.0,6.0,85,-99.99,,,-99.99,,2013-03-14 14:22:00,
2013-03-14 09:32:00,28.0,24.0,-100.00,North,10,1.0,6.0,85,-99.99,,,-99.99,,2013-03-14 14:32:00,
2013-03-14 09:42:00,29.0,24.0,-100.00,North,10,3.0,7.0,82,-99.99,,,-99.99,,2013-03-14 14:42:00,
2013-03-14 09:53:00,29.0,24.0,-100.00,North,10,3.0,7.0,82,-99.99,,,-99.99,,2013-03-14 14:53:00,
2013-03-14 15:52:00,38.0,30.0,-100.00,North,10,9.0,16.0,72,-99.99,,,-99.99,,2013-03-14 20:52:00,
2013-03-14 16:02:00,38.0,30.0,-100.00,North,10,9.0,16.0,72,-99.99,,,-99.99,,2013-03-14 21:02:00,
2013-03-14 16:12:00,39.0,30.0,-100.00,North,10,7.0,16.0,70,-99.99,,,-99.99,,2013-03-14 21:12:00,
2013-03-14 16:22:00,39.0,30.0,-100.00,North,10,8.0,13.0,69,-99.99,,,-99.99,,2013-03-14 21:22:00,
2013-03-14 16:32:00,39.0,30.0,-100.00,North,10,8.0,13.0,69,-99.99,,,-99.99,,2013-03-14 21:32:00,
2013-03-14 16:43:00,39.0,30.0,-100.00,North,10,6.0,13.0,69,-99.99,,,-99.99,,2013-03-14 21:43:00,
2013-03-14 16:53:00,40.0,30.0,-100.00,North,10,6.0,15.0,68,-99.99,,,-99.99,,2013-03-14 21:53:00,
2013-03-14 17:03:00,40.0,30.0,-100.00,North,10,6.0,15.0,68,-99.99,,,-99.99,,2013-03-14 22:03:00,
2013-03-14 17:13:00,40.0,30.0,-100.00,North,5,6.0,12.0,66,-99.99,,,-99.99,,2013-03-14 22:13:00,
2013-03-14 17:23:00,41.0,30.0,-100.00,North,10,3.0,9.0,66,-99.99,,,-99.99,,2013-03-14 22:23:00,
2013-03-14 17:33:00,41.0,30.0,-100.00,North,10,3.0,9.0,66,-99.99,,,-99.99,,2013-03-14 22:33:00,
2013-03-14 17:42:00,41.0,30.0,-100.00,North,10,4.0,9.0,65,-99.99,,,-99.99,,2013-03-14 22:42:00,
2013-03-14 17:52:00,41.0,30.0,-100.00,North,10,4.0,11.0,64,-99.99,,,-99.99,,2013-03-14 22:52:00,
2013-03-14 18:02:00,41.0,30.0,-100.00,North,10,4.0,11.0,64,-99.99,,,-99.99,,2013-03-14 23:02:00,
2013-03-14 18:12:00,41.0,29.0,-100.00,North,5,5.0,12.0,63,-99.99,,,-99.99,,2013-03-14 23:12:00,
2013-03-14 18:22:00,40.0,29.0,-100.00,North,10,4.0,10.0,65,-99.99,,,-99.99,,2013-03-14 23:22:00,
2013-03-14 18:33:00,40.0,29.0,-100.00,North,10,4.0,10.0,65,-99.99,,,-99.99,,2013-03-14 23:33:00,
2013-03-14 18:42:00,40.0,29.0,-100.00,North,10,4.0,9.0,66,-99.99,,,-99.99,,2013-03-14 23:42:00,
2013-03-14 18:53:00,39.0,29.0,-100.00,North,10,5.0,8.0,68,-99.99,,,-99.99,,2013-03-14 23:53:00,
2013-03-14 19:02:00,39.0,29.0,-100.00,North,10,5.0,8.0,68,-99.99,,,-99.99,,2013-03-15 00:02:00,
2013-03-14 19:12:00,38.0,29.0,-100.00,North,10,0.0,7.0,70,-99.99,,,-99.99,,2013-03-15 00:12:00,
2013-03-14 19:22:00,37.0,30.0,-100.00,North,10,2.0,5.0,73,-99.99,,,-99.99,,2013-03-15 00:22:00,
2013-03-14 19:32:00,37.0,30.0,-100.00,North,10,2.0,5.0,73,-99.99,,,-99.99,,2013-03-15 00:32:00,
2013-03-14 19:42:00,37.0,30.0,-100.00,North,10,3.0,6.0,75,-99.99,,,-99.99,,2013-03-15 00:42:00,
2013-03-14 19:52:00,36.0,30.0,-100.00,North,10,3.0,5.0,78,-99.99,,,-99.99,,2013-03-15 00:52:00,
2013-03-14 20:02:00,36.0,30.0,-100.00,North,10,3.0,5.0,78,-99.99,,,-99.99,,2013-03-15 01:02:00,
2013-03-14 20:12:00,36.0,30.0,-100.00,North,10,1.0,5.0,80,-99.99,,,-99.99,,2013-03-15 01:12:00,
2013-03-14 20:22:00,35.0,30.0,-100.00,North,10,2.0,6.0,82,-99.99,,,-99.99,,2013-03-15 01:22:00,
2013-03-14 20:32:00,35.0,30.0,-100.00,North,10,2.0,6.0,82,-99.99,,,-99.99,,2013-03-15 01:32:00,
2013-03-14 20:42:00,34.0,29.0,-100.00,North,10,0.0,1.0,83,-99.99,,,-99.99,,2013-03-15 01:42:00,
2013-03-14 20:52:00,33.0,30.0,-100.00,North,10,1.0,4.0,86,-99.99,,,-99.99,,2013-03-15 01:52:00,
2013-03-14 21:02:00,33.0,30.0,-100.00,North,10,1.0,4.0,86,-99.99,,,-99.99,,2013-03-15 02:02:00,
2013-03-14 21:12:00,33.0,31.0,-100.00,North,10,3.0,6.0,89,-99.99,,,-99.99,,2013-03-15 02:12:00,
2013-03-14 21:22:00,33.0,31.0,-100.00,North,10,2.0,6.0,91,-99.99,,,-99.99,,2013-03-15 02:22:00,
2013-03-14 21:32:00,33.0,31.0,-100.00,North,10,2.0,6.0,91,-99.99,,,-99.99,,2013-03-15 02:32:00,
2013-03-14 21:42:00,33.0,30.0,-100.00,North,10,2.0,6.0,92,-99.99,,,-99.99,,2013-03-15 02:42:00,
2013-03-14 21:52:00,32.0,31.0,-100.00,North,10,1.0,4.0,93,-99.99,,,-99.99,,2013-03-15 02:52:00,
2013-03-14 22:02:00,32.0,31.0,-100.00,North,10,1.0,4.0,93,-99.99,,,-99.99,,2013-03-15 03:02:00,
2013-03-14 22:12:00,32.0,31.0,-100.00,North,10,0.0,4.0,94,-99.99,,,-99.99,,2013-03-15 03:12:00,
2013-03-14 22:22:00,32.0,31.0,-100.00,North,10,0.0,2.0,95,-99.99,,,-99.99,,2013-03-15 03:22:00,
2013-03-14 22:33:00,32.0,31.0,-100.00,North,10,0.0,2.0,95,-99.99,,,-99.99,,2013-03-15 03:33:00,
2013-03-14 22:43:00,31.0,30.0,-100.00,North,10,0.0,2.0,96,-99.99,,,-99.99,,2013-03-15 03:43:00,
2013-03-14 22:53:00,31.0,30.0,-100.00,North,10,0.0,2.0,96,-99.99,,,-99.99,,2013-03-15 03:53:00,
2013-03-14 23:03:00,31.0,30.0,-100.00,North,10,0.0,2.0,96,-99.99,,,-99.99,,2013-03-15 04:03:00,
2013-03-14 23:12:00,31.0,31.0,-100.00,North,10,2.0,6.0,97,-99.99,,,-99.99,,2013-03-15 04:12:00,
2013-03-14 23:23:00,32.0,31.0,-100.00,North,10,1.0,5.0,97,-99.99,,,-99.99,,2013-03-15 04:23:00,
2013-03-14 23:32:00,32.0,31.0,-100.00,North,10,0.0,0.0,98,-99.99,,,-99.99,,2013-03-15 04:32:00,
2013-03-14 23:43:00,32.0,31.0,-100.00,North,10,0.0,0.0,98,-99.99,,,-99.99,,2013-03-15 04:43:00,
2013-03-14 23:53:00,31.0,31.0,-100.00,North,10,0.0,0.0,98,-99.99,,,-99.99,,2013-03-15 04:53:00,